sensor_id;sensor_type;location;lat;lon;timestamp;P1;durP1;ratioP1;P2;durP2;ratioP2
42018;SDS011;27703;51.980;5.848;2022-11-06T00:01:10;9.38;;;3.13;;
42018;SDS011;27703;51.980;5.848;2022-11-06T00:03:37;12.65;;;3.28;;
42018;SDS011;27703;51.980;5.848;2022-11-06T00:06:06;11.38;;;3.13;;
42018;SDS011;27703;51.980;5.848;2022-11-06T00:08:51;9.50;;;2.85;;
42018;SDS011;27703;51.980;5.848;2022-11-06T00:11:17;4.25;;;2.95;;
42018;SDS011;27703;51.980;5.848;2022-11-06T00:13:43;6.97;;;3.20;;
42018;SDS011;27703;51.980;5.848;2022-11-06T00:16:10;7.53;;;2.45;;
42018;SDS011;27703;51.980;5.848;2022-11-06T00:18:36;10.70;;;3.42;;
42018;SDS011;27703;51.980;5.848;2022-11-06T00:21:16;10.13;;;3.17;;
42018;SDS011;27703;51.980;5.848;2022-11-06T00:23:51;8.75;;;3.30;;
42018;SDS011;27703;51.980;5.848;2022-11-06T00:26:18;5.00;;;2.58;;
42018;SDS011;27703;51.980;5.848;2022-11-06T00:28:45;10.55;;;3.10;;
42018;SDS011;27703;51.980;5.848;2022-11-06T00:31:13;7.88;;;3.08;;
42018;SDS011;27703;51.980;5.848;2022-11-06T00:33:43;4.88;;;2.47;;
42018;SDS011;27703;51.980;5.848;2022-11-06T00:36:11;10.45;;;4.05;;
42018;SDS011;27703;51.980;5.848;2022-11-06T00:38:38;6.03;;;2.30;;
42018;SDS011;27703;51.980;5.848;2022-11-06T00:41:04;8.43;;;3.67;;
42018;SDS011;27703;51.980;5.848;2022-11-06T00:43:31;9.90;;;3.55;;
42018;SDS011;27703;51.980;5.848;2022-11-06T00:46:04;11.40;;;2.95;;
42018;SDS011;27703;51.980;5.848;2022-11-06T00:48:31;7.68;;;2.90;;
42018;SDS011;27703;51.980;5.848;2022-11-06T00:51:40;7.63;;;2.50;;
42018;SDS011;27703;51.980;5.848;2022-11-06T00:53:54;9.15;;;2.42;;
42018;SDS011;27703;51.980;5.848;2022-11-06T00:56:21;6.55;;;2.65;;
42018;SDS011;27703;51.980;5.848;2022-11-06T00:58:47;6.20;;;2.67;;
42018;SDS011;27703;51.980;5.848;2022-11-06T01:01:18;9.45;;;2.60;;
42018;SDS011;27703;51.980;5.848;2022-11-06T01:03:55;8.98;;;2.65;;
42018;SDS011;27703;51.980;5.848;2022-11-06T01:06:29;14.00;;;2.95;;
42018;SDS011;27703;51.980;5.848;2022-11-06T01:08:57;6.45;;;1.70;;
42018;SDS011;27703;51.980;5.848;2022-11-06T01:11:24;9.75;;;2.67;;
42018;SDS011;27703;51.980;5.848;2022-11-06T01:13:54;6.28;;;1.92;;
42018;SDS011;27703;51.980;5.848;2022-11-06T01:16:21;9.48;;;2.45;;
42018;SDS011;27703;51.980;5.848;2022-11-06T01:18:48;7.65;;;2.92;;
42018;SDS011;27703;51.980;5.848;2022-11-06T01:21:18;5.57;;;2.60;;
42018;SDS011;27703;51.980;5.848;2022-11-06T01:23:46;7.18;;;1.85;;
42018;SDS011;27703;51.980;5.848;2022-11-06T01:26:12;9.75;;;2.67;;
42018;SDS011;27703;51.980;5.848;2022-11-06T01:28:39;8.45;;;2.33;;
42018;SDS011;27703;51.980;5.848;2022-11-06T01:31:06;10.05;;;2.13;;
42018;SDS011;27703;51.980;5.848;2022-11-06T01:33:40;13.48;;;2.20;;
42018;SDS011;27703;51.980;5.848;2022-11-06T01:36:07;6.80;;;2.40;;
42018;SDS011;27703;51.980;5.848;2022-11-06T01:38:34;5.65;;;1.73;;
42018;SDS011;27703;51.980;5.848;2022-11-06T01:40:59;4.75;;;1.67;;
42018;SDS011;27703;51.980;5.848;2022-11-06T01:43:42;5.20;;;1.92;;
42018;SDS011;27703;51.980;5.848;2022-11-06T01:46:11;6.95;;;1.73;;
42018;SDS011;27703;51.980;5.848;2022-11-06T01:48:38;8.63;;;1.80;;
42018;SDS011;27703;51.980;5.848;2022-11-06T01:51:07;6.70;;;1.70;;
42018;SDS011;27703;51.980;5.848;2022-11-06T01:53:33;9.35;;;1.73;;
42018;SDS011;27703;51.980;5.848;2022-11-06T01:56:00;10.18;;;2.25;;
42018;SDS011;27703;51.980;5.848;2022-11-06T01:58:29;4.90;;;1.23;;
42018;SDS011;27703;51.980;5.848;2022-11-06T02:00:56;11.48;;;1.80;;
42018;SDS011;27703;51.980;5.848;2022-11-06T02:03:22;6.45;;;2.40;;
42018;SDS011;27703;51.980;5.848;2022-11-06T02:05:47;8.50;;;1.90;;
42018;SDS011;27703;51.980;5.848;2022-11-06T02:08:14;9.73;;;1.67;;
42018;SDS011;27703;51.980;5.848;2022-11-06T02:10:42;6.15;;;1.15;;
42018;SDS011;27703;51.980;5.848;2022-11-06T02:15:54;3.10;;;0.93;;
42018;SDS011;27703;51.980;5.848;2022-11-06T02:27:04;4.68;;;1.00;;
42018;SDS011;27703;51.980;5.848;2022-11-06T02:32:02;10.88;;;1.77;;
42018;SDS011;27703;51.980;5.848;2022-11-06T02:34:31;6.05;;;1.73;;
42018;SDS011;27703;51.980;5.848;2022-11-06T02:37:02;10.40;;;1.50;;
42018;SDS011;27703;51.980;5.848;2022-11-06T02:39:30;6.88;;;1.40;;
42018;SDS011;27703;51.980;5.848;2022-11-06T02:41:58;3.40;;;1.00;;
42018;SDS011;27703;51.980;5.848;2022-11-06T02:44:26;9.40;;;0.93;;
42018;SDS011;27703;51.980;5.848;2022-11-06T02:46:54;4.88;;;1.10;;
42018;SDS011;27703;51.980;5.848;2022-11-06T02:49:24;7.10;;;1.00;;
42018;SDS011;27703;51.980;5.848;2022-11-06T02:52:00;5.70;;;0.80;;
42018;SDS011;27703;51.980;5.848;2022-11-06T02:54:45;8.02;;;1.38;;
42018;SDS011;27703;51.980;5.848;2022-11-06T02:57:13;5.25;;;1.30;;
42018;SDS011;27703;51.980;5.848;2022-11-06T02:59:46;6.43;;;1.15;;
42018;SDS011;27703;51.980;5.848;2022-11-06T03:02:25;4.80;;;0.75;;
42018;SDS011;27703;51.980;5.848;2022-11-06T03:04:57;4.43;;;0.90;;
42018;SDS011;27703;51.980;5.848;2022-11-06T03:07:38;5.05;;;0.90;;
42018;SDS011;27703;51.980;5.848;2022-11-06T03:10:34;8.80;;;1.23;;
42018;SDS011;27703;51.980;5.848;2022-11-06T03:13:17;9.90;;;1.40;;
42018;SDS011;27703;51.980;5.848;2022-11-06T03:15:57;4.30;;;0.80;;
42018;SDS011;27703;51.980;5.848;2022-11-06T03:18:42;7.88;;;1.02;;
42018;SDS011;27703;51.980;5.848;2022-11-06T03:21:26;4.73;;;1.00;;
42018;SDS011;27703;51.980;5.848;2022-11-06T03:24:15;5.35;;;1.48;;
42018;SDS011;27703;51.980;5.848;2022-11-06T03:26:46;7.43;;;1.45;;
42018;SDS011;27703;51.980;5.848;2022-11-06T03:32:27;6.72;;;1.23;;
42018;SDS011;27703;51.980;5.848;2022-11-06T03:37:48;4.97;;;0.93;;
42018;SDS011;27703;51.980;5.848;2022-11-06T03:40:19;5.38;;;0.70;;
42018;SDS011;27703;51.980;5.848;2022-11-06T03:42:48;5.07;;;0.98;;
42018;SDS011;27703;51.980;5.848;2022-11-06T03:45:18;7.03;;;0.70;;
42018;SDS011;27703;51.980;5.848;2022-11-06T03:47:47;6.47;;;0.88;;
42018;SDS011;27703;51.980;5.848;2022-11-06T03:50:36;5.05;;;0.82;;
42018;SDS011;27703;51.980;5.848;2022-11-06T03:53:24;3.65;;;0.70;;
42018;SDS011;27703;51.980;5.848;2022-11-06T03:55:54;5.28;;;0.82;;
42018;SDS011;27703;51.980;5.848;2022-11-06T03:58:30;6.43;;;0.90;;
42018;SDS011;27703;51.980;5.848;2022-11-06T04:01:05;8.15;;;0.90;;
42018;SDS011;27703;51.980;5.848;2022-11-06T04:03:41;4.07;;;1.00;;
42018;SDS011;27703;51.980;5.848;2022-11-06T04:06:14;7.18;;;1.00;;
42018;SDS011;27703;51.980;5.848;2022-11-06T04:08:44;5.45;;;0.75;;
42018;SDS011;27703;51.980;5.848;2022-11-06T04:11:32;3.90;;;0.57;;
42018;SDS011;27703;51.980;5.848;2022-11-06T04:14:18;4.10;;;0.60;;
42018;SDS011;27703;51.980;5.848;2022-11-06T04:16:47;4.60;;;0.70;;
42018;SDS011;27703;51.980;5.848;2022-11-06T04:19:18;7.47;;;1.23;;
42018;SDS011;27703;51.980;5.848;2022-11-06T04:22:04;9.63;;;1.30;;
42018;SDS011;27703;51.980;5.848;2022-11-06T04:24:50;10.45;;;0.82;;
42018;SDS011;27703;51.980;5.848;2022-11-06T04:27:52;9.00;;;0.75;;
42018;SDS011;27703;51.980;5.848;2022-11-06T04:30:21;5.30;;;0.80;;
42018;SDS011;27703;51.980;5.848;2022-11-06T04:32:53;10.43;;;1.13;;
42018;SDS011;27703;51.980;5.848;2022-11-06T04:38:07;6.13;;;0.85;;
42018;SDS011;27703;51.980;5.848;2022-11-06T04:40:56;4.63;;;0.60;;
42018;SDS011;27703;51.980;5.848;2022-11-06T04:43:48;6.93;;;0.68;;
42018;SDS011;27703;51.980;5.848;2022-11-06T04:46:22;8.02;;;1.08;;
42018;SDS011;27703;51.980;5.848;2022-11-06T04:51:20;7.43;;;0.95;;
42018;SDS011;27703;51.980;5.848;2022-11-06T04:53:50;5.65;;;0.90;;
42018;SDS011;27703;51.980;5.848;2022-11-06T04:56:35;6.85;;;0.55;;
42018;SDS011;27703;51.980;5.848;2022-11-06T04:59:02;10.52;;;0.70;;
42018;SDS011;27703;51.980;5.848;2022-11-06T05:01:28;4.80;;;1.13;;
42018;SDS011;27703;51.980;5.848;2022-11-06T05:03:54;2.88;;;0.50;;
42018;SDS011;27703;51.980;5.848;2022-11-06T05:06:20;4.32;;;0.70;;
42018;SDS011;27703;51.980;5.848;2022-11-06T05:08:45;8.25;;;0.60;;
42018;SDS011;27703;51.980;5.848;2022-11-06T05:11:11;6.80;;;0.80;;
42018;SDS011;27703;51.980;5.848;2022-11-06T05:13:37;3.63;;;0.70;;
42018;SDS011;27703;51.980;5.848;2022-11-06T05:16:03;5.13;;;0.68;;
42018;SDS011;27703;51.980;5.848;2022-11-06T05:18:29;9.45;;;1.77;;
42018;SDS011;27703;51.980;5.848;2022-11-06T05:20:58;8.68;;;1.20;;
42018;SDS011;27703;51.980;5.848;2022-11-06T05:23:43;3.75;;;0.57;;
42018;SDS011;27703;51.980;5.848;2022-11-06T05:26:09;4.32;;;0.57;;
42018;SDS011;27703;51.980;5.848;2022-11-06T05:28:34;7.53;;;0.80;;
42018;SDS011;27703;51.980;5.848;2022-11-06T05:31:00;6.43;;;1.48;;
42018;SDS011;27703;51.980;5.848;2022-11-06T05:33:25;11.07;;;1.17;;
42018;SDS011;27703;51.980;5.848;2022-11-06T05:35:51;12.00;;;1.70;;
42018;SDS011;27703;51.980;5.848;2022-11-06T05:38:16;4.72;;;0.60;;
42018;SDS011;27703;51.980;5.848;2022-11-06T05:40:42;6.88;;;0.55;;
42018;SDS011;27703;51.980;5.848;2022-11-06T05:43:07;13.55;;;1.05;;
42018;SDS011;27703;51.980;5.848;2022-11-06T05:45:33;3.72;;;0.65;;
42018;SDS011;27703;51.980;5.848;2022-11-06T05:47:58;7.40;;;0.60;;
42018;SDS011;27703;51.980;5.848;2022-11-06T05:50:24;6.20;;;0.75;;
42018;SDS011;27703;51.980;5.848;2022-11-06T05:52:50;5.65;;;0.57;;
42018;SDS011;27703;51.980;5.848;2022-11-06T05:55:15;5.80;;;0.60;;
42018;SDS011;27703;51.980;5.848;2022-11-06T05:57:41;5.63;;;0.85;;
42018;SDS011;27703;51.980;5.848;2022-11-06T06:00:07;4.47;;;0.65;;
42018;SDS011;27703;51.980;5.848;2022-11-06T06:02:34;8.02;;;0.80;;
42018;SDS011;27703;51.980;5.848;2022-11-06T06:05:00;7.60;;;0.90;;
42018;SDS011;27703;51.980;5.848;2022-11-06T06:07:26;7.53;;;1.45;;
42018;SDS011;27703;51.980;5.848;2022-11-06T06:09:51;4.55;;;0.75;;
42018;SDS011;27703;51.980;5.848;2022-11-06T06:12:17;6.70;;;0.60;;
42018;SDS011;27703;51.980;5.848;2022-11-06T06:14:42;8.18;;;1.08;;
42018;SDS011;27703;51.980;5.848;2022-11-06T06:17:08;6.72;;;0.63;;
42018;SDS011;27703;51.980;5.848;2022-11-06T06:19:33;3.90;;;0.60;;
42018;SDS011;27703;51.980;5.848;2022-11-06T06:21:59;3.38;;;0.70;;
42018;SDS011;27703;51.980;5.848;2022-11-06T06:24:24;9.45;;;1.05;;
42018;SDS011;27703;51.980;5.848;2022-11-06T06:26:50;5.60;;;0.85;;
42018;SDS011;27703;51.980;5.848;2022-11-06T06:29:15;9.70;;;1.17;;
42018;SDS011;27703;51.980;5.848;2022-11-06T06:31:41;7.38;;;0.70;;
42018;SDS011;27703;51.980;5.848;2022-11-06T06:34:06;3.85;;;0.95;;
42018;SDS011;27703;51.980;5.848;2022-11-06T06:36:32;8.43;;;0.90;;
42018;SDS011;27703;51.980;5.848;2022-11-06T06:38:57;7.70;;;1.23;;
42018;SDS011;27703;51.980;5.848;2022-11-06T06:41:23;8.85;;;1.02;;
42018;SDS011;27703;51.980;5.848;2022-11-06T06:43:49;8.20;;;0.95;;
42018;SDS011;27703;51.980;5.848;2022-11-06T06:46:14;11.60;;;1.55;;
42018;SDS011;27703;51.980;5.848;2022-11-06T06:48:40;3.28;;;0.50;;
42018;SDS011;27703;51.980;5.848;2022-11-06T06:51:06;6.25;;;0.70;;
42018;SDS011;27703;51.980;5.848;2022-11-06T06:53:34;4.53;;;0.75;;
42018;SDS011;27703;51.980;5.848;2022-11-06T06:56:00;3.20;;;0.50;;
42018;SDS011;27703;51.980;5.848;2022-11-06T06:58:26;5.20;;;0.63;;
42018;SDS011;27703;51.980;5.848;2022-11-06T07:00:52;6.18;;;0.80;;
42018;SDS011;27703;51.980;5.848;2022-11-06T07:03:19;4.97;;;0.77;;
42018;SDS011;27703;51.980;5.848;2022-11-06T07:05:45;4.50;;;0.77;;
42018;SDS011;27703;51.980;5.848;2022-11-06T07:08:11;4.68;;;0.70;;
42018;SDS011;27703;51.980;5.848;2022-11-06T07:10:36;10.80;;;2.03;;
42018;SDS011;27703;51.980;5.848;2022-11-06T07:13:02;6.60;;;0.95;;
42018;SDS011;27703;51.980;5.848;2022-11-06T07:15:29;5.57;;;0.68;;
42018;SDS011;27703;51.980;5.848;2022-11-06T07:17:59;4.47;;;0.95;;
42018;SDS011;27703;51.980;5.848;2022-11-06T07:20:29;5.20;;;0.80;;
42018;SDS011;27703;51.980;5.848;2022-11-06T07:22:55;4.57;;;1.67;;
42018;SDS011;27703;51.980;5.848;2022-11-06T07:25:21;4.32;;;0.60;;
42018;SDS011;27703;51.980;5.848;2022-11-06T07:27:46;4.13;;;0.80;;
42018;SDS011;27703;51.980;5.848;2022-11-06T07:30:12;6.35;;;0.52;;
42018;SDS011;27703;51.980;5.848;2022-11-06T07:32:37;4.90;;;0.70;;
42018;SDS011;27703;51.980;5.848;2022-11-06T07:35:03;3.58;;;0.73;;
42018;SDS011;27703;51.980;5.848;2022-11-06T07:37:29;5.65;;;0.63;;
42018;SDS011;27703;51.980;5.848;2022-11-06T07:39:54;3.55;;;0.82;;
42018;SDS011;27703;51.980;5.848;2022-11-06T07:42:20;7.70;;;0.90;;
42018;SDS011;27703;51.980;5.848;2022-11-06T07:44:45;6.57;;;1.05;;
42018;SDS011;27703;51.980;5.848;2022-11-06T07:47:11;6.18;;;0.63;;
42018;SDS011;27703;51.980;5.848;2022-11-06T07:49:36;10.63;;;1.35;;
42018;SDS011;27703;51.980;5.848;2022-11-06T07:52:03;5.18;;;0.70;;
42018;SDS011;27703;51.980;5.848;2022-11-06T07:54:29;5.00;;;0.50;;
42018;SDS011;27703;51.980;5.848;2022-11-06T07:56:55;4.25;;;0.50;;
42018;SDS011;27703;51.980;5.848;2022-11-06T07:59:20;6.72;;;0.80;;
42018;SDS011;27703;51.980;5.848;2022-11-06T08:01:46;3.38;;;0.50;;
42018;SDS011;27703;51.980;5.848;2022-11-06T08:04:11;4.03;;;0.50;;
42018;SDS011;27703;51.980;5.848;2022-11-06T08:06:37;5.35;;;0.57;;
42018;SDS011;27703;51.980;5.848;2022-11-06T08:09:04;12.13;;;0.75;;
42018;SDS011;27703;51.980;5.848;2022-11-06T08:11:31;7.60;;;1.08;;
42018;SDS011;27703;51.980;5.848;2022-11-06T08:13:58;5.07;;;0.57;;
42018;SDS011;27703;51.980;5.848;2022-11-06T08:16:24;6.70;;;0.82;;
42018;SDS011;27703;51.980;5.848;2022-11-06T08:18:50;3.38;;;0.50;;
42018;SDS011;27703;51.980;5.848;2022-11-06T08:21:15;4.88;;;0.60;;
42018;SDS011;27703;51.980;5.848;2022-11-06T08:23:41;7.03;;;0.60;;
42018;SDS011;27703;51.980;5.848;2022-11-06T08:26:06;3.88;;;1.10;;
42018;SDS011;27703;51.980;5.848;2022-11-06T08:28:32;2.58;;;0.55;;
42018;SDS011;27703;51.980;5.848;2022-11-06T08:31:02;3.05;;;0.50;;
42018;SDS011;27703;51.980;5.848;2022-11-06T08:33:31;8.30;;;0.70;;
42018;SDS011;27703;51.980;5.848;2022-11-06T08:36:01;4.82;;;0.60;;
42018;SDS011;27703;51.980;5.848;2022-11-06T08:38:30;6.05;;;0.60;;
42018;SDS011;27703;51.980;5.848;2022-11-06T08:40:56;7.53;;;0.85;;
42018;SDS011;27703;51.980;5.848;2022-11-06T08:43:22;5.28;;;0.57;;
42018;SDS011;27703;51.980;5.848;2022-11-06T08:45:50;5.03;;;0.70;;
42018;SDS011;27703;51.980;5.848;2022-11-06T08:48:16;3.25;;;0.50;;
42018;SDS011;27703;51.980;5.848;2022-11-06T08:50:42;4.22;;;0.40;;
42018;SDS011;27703;51.980;5.848;2022-11-06T08:53:08;7.93;;;0.63;;
42018;SDS011;27703;51.980;5.848;2022-11-06T08:55:35;3.15;;;0.40;;
42018;SDS011;27703;51.980;5.848;2022-11-06T08:58:02;2.67;;;0.68;;
42018;SDS011;27703;51.980;5.848;2022-11-06T09:00:28;4.60;;;0.57;;
42018;SDS011;27703;51.980;5.848;2022-11-06T09:02:57;6.47;;;0.50;;
42018;SDS011;27703;51.980;5.848;2022-11-06T09:05:23;7.65;;;1.63;;
42018;SDS011;27703;51.980;5.848;2022-11-06T09:07:49;7.10;;;0.70;;
42018;SDS011;27703;51.980;5.848;2022-11-06T09:10:15;6.13;;;0.77;;
42018;SDS011;27703;51.980;5.848;2022-11-06T09:12:40;3.20;;;0.80;;
42018;SDS011;27703;51.980;5.848;2022-11-06T09:15:06;2.30;;;0.52;;
42018;SDS011;27703;51.980;5.848;2022-11-06T09:17:32;3.55;;;0.60;;
42018;SDS011;27703;51.980;5.848;2022-11-06T09:19:57;7.90;;;0.70;;
42018;SDS011;27703;51.980;5.848;2022-11-06T09:22:23;5.85;;;0.55;;
42018;SDS011;27703;51.980;5.848;2022-11-06T09:24:49;9.85;;;0.73;;
42018;SDS011;27703;51.980;5.848;2022-11-06T09:27:14;4.38;;;0.50;;
42018;SDS011;27703;51.980;5.848;2022-11-06T09:29:41;3.85;;;0.55;;
42018;SDS011;27703;51.980;5.848;2022-11-06T09:32:08;2.50;;;0.45;;
42018;SDS011;27703;51.980;5.848;2022-11-06T09:34:35;6.88;;;1.70;;
42018;SDS011;27703;51.980;5.848;2022-11-06T09:37:01;3.38;;;0.50;;
42018;SDS011;27703;51.980;5.848;2022-11-06T09:39:26;9.93;;;1.42;;
42018;SDS011;27703;51.980;5.848;2022-11-06T09:41:53;10.20;;;1.75;;
42018;SDS011;27703;51.980;5.848;2022-11-06T09:47:29;5.05;;;0.95;;
42018;SDS011;27703;51.980;5.848;2022-11-06T09:49:59;8.35;;;0.60;;
42018;SDS011;27703;51.980;5.848;2022-11-06T09:57:54;4.20;;;0.40;;
42018;SDS011;27703;51.980;5.848;2022-11-06T10:00:39;1.92;;;0.85;;
42018;SDS011;27703;51.980;5.848;2022-11-06T10:05:40;7.30;;;0.70;;
42018;SDS011;27703;51.980;5.848;2022-11-06T10:08:11;9.48;;;0.68;;
42018;SDS011;27703;51.980;5.848;2022-11-06T10:15:49;2.58;;;0.50;;
42018;SDS011;27703;51.980;5.848;2022-11-06T10:18:34;5.15;;;0.50;;
42018;SDS011;27703;51.980;5.848;2022-11-06T10:21:09;6.90;;;0.60;;
42018;SDS011;27703;51.980;5.848;2022-11-06T10:23:48;8.88;;;0.65;;
42018;SDS011;27703;51.980;5.848;2022-11-06T10:26:19;4.63;;;0.50;;
42018;SDS011;27703;51.980;5.848;2022-11-06T10:31:24;3.22;;;0.32;;
42018;SDS011;27703;51.980;5.848;2022-11-06T10:34:02;5.63;;;0.40;;
42018;SDS011;27703;51.980;5.848;2022-11-06T10:36:48;3.75;;;0.40;;
42018;SDS011;27703;51.980;5.848;2022-11-06T10:39:26;3.38;;;0.40;;
42018;SDS011;27703;51.980;5.848;2022-11-06T10:41:58;5.30;;;0.70;;
42018;SDS011;27703;51.980;5.848;2022-11-06T10:44:34;3.45;;;0.50;;
42018;SDS011;27703;51.980;5.848;2022-11-06T10:47:03;4.80;;;0.60;;
42018;SDS011;27703;51.980;5.848;2022-11-06T10:49:39;4.00;;;0.50;;
42018;SDS011;27703;51.980;5.848;2022-11-06T10:52:21;5.93;;;1.20;;
42018;SDS011;27703;51.980;5.848;2022-11-06T10:58:00;5.55;;;0.50;;
42018;SDS011;27703;51.980;5.848;2022-11-06T11:00:29;3.23;;;0.33;;
42018;SDS011;27703;51.980;5.848;2022-11-06T11:02:58;5.22;;;1.23;;
42018;SDS011;27703;51.980;5.848;2022-11-06T11:05:26;4.28;;;0.30;;
42018;SDS011;27703;51.980;5.848;2022-11-06T11:08:30;8.65;;;0.50;;
42018;SDS011;27703;51.980;5.848;2022-11-06T11:11:01;2.42;;;0.30;;
42018;SDS011;27703;51.980;5.848;2022-11-06T11:13:39;2.60;;;0.40;;
42018;SDS011;27703;51.980;5.848;2022-11-06T11:16:11;5.50;;;0.43;;
42018;SDS011;27703;51.980;5.848;2022-11-06T11:18:42;3.58;;;0.30;;
42018;SDS011;27703;51.980;5.848;2022-11-06T11:23:37;4.68;;;0.50;;
42018;SDS011;27703;51.980;5.848;2022-11-06T11:28:53;5.97;;;0.65;;
42018;SDS011;27703;51.980;5.848;2022-11-06T11:31:26;3.55;;;0.40;;
42018;SDS011;27703;51.980;5.848;2022-11-06T11:33:59;3.35;;;0.50;;
42018;SDS011;27703;51.980;5.848;2022-11-06T11:36:50;2.92;;;0.50;;
42018;SDS011;27703;51.980;5.848;2022-11-06T11:39:16;5.47;;;0.40;;
42018;SDS011;27703;51.980;5.848;2022-11-06T11:41:44;5.90;;;1.02;;
42018;SDS011;27703;51.980;5.848;2022-11-06T11:46:36;6.90;;;0.93;;
42018;SDS011;27703;51.980;5.848;2022-11-06T11:49:28;5.75;;;0.45;;
42018;SDS011;27703;51.980;5.848;2022-11-06T11:52:01;6.63;;;0.60;;
42018;SDS011;27703;51.980;5.848;2022-11-06T11:54:36;2.67;;;0.50;;
42018;SDS011;27703;51.980;5.848;2022-11-06T11:57:06;4.60;;;0.40;;
42018;SDS011;27703;51.980;5.848;2022-11-06T11:59:51;4.50;;;0.30;;
42018;SDS011;27703;51.980;5.848;2022-11-06T12:02:30;3.42;;;0.50;;
42018;SDS011;27703;51.980;5.848;2022-11-06T12:05:07;5.13;;;0.38;;
42018;SDS011;27703;51.980;5.848;2022-11-06T12:07:40;2.65;;;0.30;;
42018;SDS011;27703;51.980;5.848;2022-11-06T12:13:20;9.38;;;0.65;;
42018;SDS011;27703;51.980;5.848;2022-11-06T12:15:57;3.28;;;0.30;;
42018;SDS011;27703;51.980;5.848;2022-11-06T12:18:30;3.97;;;0.30;;
42018;SDS011;27703;51.980;5.848;2022-11-06T12:21:00;3.50;;;0.75;;
42018;SDS011;27703;51.980;5.848;2022-11-06T12:23:36;4.13;;;0.37;;
42018;SDS011;27703;51.980;5.848;2022-11-06T12:26:24;7.03;;;0.57;;
42018;SDS011;27703;51.980;5.848;2022-11-06T12:28:52;3.50;;;0.30;;
42018;SDS011;27703;51.980;5.848;2022-11-06T12:33:55;4.63;;;0.20;;
42018;SDS011;27703;51.980;5.848;2022-11-06T12:36:22;4.63;;;0.50;;
42018;SDS011;27703;51.980;5.848;2022-11-06T12:38:53;4.57;;;0.40;;
42018;SDS011;27703;51.980;5.848;2022-11-06T12:41:28;4.60;;;0.65;;
42018;SDS011;27703;51.980;5.848;2022-11-06T12:44:03;8.18;;;0.60;;
42018;SDS011;27703;51.980;5.848;2022-11-06T12:52:20;3.05;;;0.70;;
42018;SDS011;27703;51.980;5.848;2022-11-06T13:00:23;3.35;;;0.50;;
42018;SDS011;27703;51.980;5.848;2022-11-06T13:11:27;2.67;;;0.50;;
42018;SDS011;27703;51.980;5.848;2022-11-06T13:14:18;4.88;;;0.30;;
42018;SDS011;27703;51.980;5.848;2022-11-06T13:19:26;6.85;;;0.68;;
42018;SDS011;27703;51.980;5.848;2022-11-06T13:24:35;3.15;;;0.30;;
42018;SDS011;27703;51.980;5.848;2022-11-06T13:32:42;5.70;;;0.30;;
42018;SDS011;27703;51.980;5.848;2022-11-06T13:35:16;4.05;;;0.60;;
42018;SDS011;27703;51.980;5.848;2022-11-06T13:37:44;4.07;;;0.30;;
42018;SDS011;27703;51.980;5.848;2022-11-06T13:40:15;4.38;;;0.65;;
42018;SDS011;27703;51.980;5.848;2022-11-06T13:42:50;1.88;;;0.17;;
42018;SDS011;27703;51.980;5.848;2022-11-06T13:45:32;7.85;;;0.30;;
42018;SDS011;27703;51.980;5.848;2022-11-06T13:51:07;5.25;;;0.20;;
42018;SDS011;27703;51.980;5.848;2022-11-06T13:53:59;4.07;;;0.40;;
42018;SDS011;27703;51.980;5.848;2022-11-06T13:56:35;2.28;;;0.20;;
42018;SDS011;27703;51.980;5.848;2022-11-06T14:07:52;3.95;;;0.20;;
42018;SDS011;27703;51.980;5.848;2022-11-06T14:10:19;3.05;;;0.30;;
42018;SDS011;27703;51.980;5.848;2022-11-06T14:12:47;5.20;;;0.30;;
42018;SDS011;27703;51.980;5.848;2022-11-06T14:18:19;2.38;;;0.50;;
42018;SDS011;27703;51.980;5.848;2022-11-06T14:20:38;3.38;;;0.40;;
42018;SDS011;27703;51.980;5.848;2022-11-06T14:26:01;2.78;;;0.20;;
42018;SDS011;27703;51.980;5.848;2022-11-06T14:28:32;2.85;;;0.40;;
42018;SDS011;27703;51.980;5.848;2022-11-06T14:31:02;4.85;;;0.85;;
42018;SDS011;27703;51.980;5.848;2022-11-06T14:36:28;6.53;;;0.30;;
42018;SDS011;27703;51.980;5.848;2022-11-06T14:38:54;1.40;;;0.30;;
42018;SDS011;27703;51.980;5.848;2022-11-06T14:44:06;4.50;;;0.60;;
42018;SDS011;27703;51.980;5.848;2022-11-06T14:46:57;2.08;;;0.30;;
42018;SDS011;27703;51.980;5.848;2022-11-06T14:49:31;0.90;;;0.20;;
42018;SDS011;27703;51.980;5.848;2022-11-06T14:52:06;3.67;;;0.30;;
42018;SDS011;27703;51.980;5.848;2022-11-06T14:54:36;1.75;;;0.30;;
42018;SDS011;27703;51.980;5.848;2022-11-06T14:57:05;5.38;;;0.22;;
42018;SDS011;27703;51.980;5.848;2022-11-06T14:59:36;2.28;;;0.30;;
42018;SDS011;27703;51.980;5.848;2022-11-06T15:02:10;4.90;;;0.40;;
42018;SDS011;27703;51.980;5.848;2022-11-06T15:04:40;2.83;;;0.40;;
42018;SDS011;27703;51.980;5.848;2022-11-06T15:07:50;2.70;;;0.20;;
42018;SDS011;27703;51.980;5.848;2022-11-06T15:15:41;3.03;;;0.35;;
42018;SDS011;27703;51.980;5.848;2022-11-06T15:18:16;3.75;;;0.30;;
42018;SDS011;27703;51.980;5.848;2022-11-06T15:20:46;4.10;;;0.20;;
42018;SDS011;27703;51.980;5.848;2022-11-06T15:23:16;3.13;;;0.33;;
42018;SDS011;27703;51.980;5.848;2022-11-06T15:25:54;1.47;;;0.20;;
42018;SDS011;27703;51.980;5.848;2022-11-06T15:28:24;3.47;;;0.30;;
42018;SDS011;27703;51.980;5.848;2022-11-06T15:30:59;2.65;;;0.45;;
42018;SDS011;27703;51.980;5.848;2022-11-06T15:33:32;4.00;;;1.23;;
42018;SDS011;27703;51.980;5.848;2022-11-06T15:36:04;7.70;;;0.40;;
42018;SDS011;27703;51.980;5.848;2022-11-06T15:38:36;8.48;;;0.40;;
42018;SDS011;27703;51.980;5.848;2022-11-06T15:41:03;1.50;;;0.40;;
42018;SDS011;27703;51.980;5.848;2022-11-06T15:43:34;2.10;;;0.30;;
42018;SDS011;27703;51.980;5.848;2022-11-06T15:46:02;3.25;;;0.30;;
42018;SDS011;27703;51.980;5.848;2022-11-06T15:48:44;3.33;;;0.50;;
42018;SDS011;27703;51.980;5.848;2022-11-06T15:51:26;2.13;;;0.20;;
42018;SDS011;27703;51.980;5.848;2022-11-06T15:53:53;3.72;;;0.20;;
42018;SDS011;27703;51.980;5.848;2022-11-06T15:56:39;0.70;;;0.13;;
42018;SDS011;27703;51.980;5.848;2022-11-06T16:01:38;2.75;;;0.20;;
42018;SDS011;27703;51.980;5.848;2022-11-06T16:04:06;2.60;;;0.30;;
42018;SDS011;27703;51.980;5.848;2022-11-06T16:06:37;1.42;;;0.30;;
42018;SDS011;27703;51.980;5.848;2022-11-06T16:09:03;2.70;;;0.20;;
42018;SDS011;27703;51.980;5.848;2022-11-06T16:11:29;4.10;;;0.35;;
42018;SDS011;27703;51.980;5.848;2022-11-06T16:13:56;1.67;;;0.40;;
42018;SDS011;27703;51.980;5.848;2022-11-06T16:16:39;2.60;;;0.30;;
42018;SDS011;27703;51.980;5.848;2022-11-06T16:19:25;1.75;;;0.30;;
42018;SDS011;27703;51.980;5.848;2022-11-06T16:22:03;3.08;;;0.40;;
42018;SDS011;27703;51.980;5.848;2022-11-06T16:24:53;1.65;;;0.20;;
42018;SDS011;27703;51.980;5.848;2022-11-06T16:27:20;5.72;;;0.55;;
42018;SDS011;27703;51.980;5.848;2022-11-06T16:29:48;4.57;;;0.50;;
42018;SDS011;27703;51.980;5.848;2022-11-06T16:32:22;4.72;;;0.30;;
42018;SDS011;27703;51.980;5.848;2022-11-06T16:34:51;0.95;;;0.30;;
42018;SDS011;27703;51.980;5.848;2022-11-06T16:40:05;1.20;;;0.38;;
42018;SDS011;27703;51.980;5.848;2022-11-06T16:43:01;2.78;;;0.30;;
42018;SDS011;27703;51.980;5.848;2022-11-06T16:45:27;3.83;;;0.40;;
42018;SDS011;27703;51.980;5.848;2022-11-06T16:50:46;3.83;;;0.82;;
42018;SDS011;27703;51.980;5.848;2022-11-06T16:53:20;1.75;;;0.30;;
42018;SDS011;27703;51.980;5.848;2022-11-06T16:56:02;1.75;;;0.40;;
42018;SDS011;27703;51.980;5.848;2022-11-06T16:58:31;6.50;;;0.52;;
42018;SDS011;27703;51.980;5.848;2022-11-06T17:01:01;1.63;;;0.30;;
42018;SDS011;27703;51.980;5.848;2022-11-06T17:03:39;2.58;;;0.50;;
42018;SDS011;27703;51.980;5.848;2022-11-06T17:06:18;4.43;;;0.40;;
42018;SDS011;27703;51.980;5.848;2022-11-06T17:08:55;3.25;;;0.50;;
42018;SDS011;27703;51.980;5.848;2022-11-06T17:11:22;1.35;;;0.40;;
42018;SDS011;27703;51.980;5.848;2022-11-06T17:13:48;2.35;;;0.57;;
42018;SDS011;27703;51.980;5.848;2022-11-06T17:16:24;2.45;;;0.47;;
42018;SDS011;27703;51.980;5.848;2022-11-06T17:18:51;2.35;;;0.40;;